sensor_id;sensor_type;location;lat;lon;timestamp;pressure;altitude;pressure_sealevel;temperature;humidity
19890;BME280;10107;51.198;6.824;2023-02-13T00:01:42;-21525.00;;;7.81;100.00
19890;BME280;10107;51.198;6.824;2023-02-13T00:05:43;-21524.88;;;7.81;100.00
19890;BME280;10107;51.198;6.824;2023-02-13T00:09:46;-21524.63;;;7.80;100.00
19890;BME280;10107;51.198;6.824;2023-02-13T00:13:49;-21524.47;;;7.79;100.00
19890;BME280;10107;51.198;6.824;2023-02-13T00:17:51;-21524.09;;;7.78;100.00
19890;BME280;10107;51.198;6.824;2023-02-13T00:21:53;-21523.41;;;7.75;100.00
19890;BME280;10107;51.198;6.824;2023-02-13T00:25:55;-21523.69;;;7.76;100.00
19890;BME280;10107;51.198;6.824;2023-02-13T00:29:58;-21522.88;;;7.73;100.00
19890;BME280;10107;51.198;6.824;2023-02-13T00:34:00;-21522.50;;;7.71;100.00
19890;BME280;10107;51.198;6.824;2023-02-13T00:38:01;-21522.63;;;7.72;100.00
19890;BME280;10107;51.198;6.824;2023-02-13T00:42:04;-21522.22;;;7.70;100.00
19890;BME280;10107;51.198;6.824;2023-02-13T00:46:07;-21522.22;;;7.70;100.00
19890;BME280;10107;51.198;6.824;2023-02-13T00:50:09;-21522.50;;;7.71;100.00
19890;BME280;10107;51.198;6.824;2023-02-13T00:54:11;-21521.81;;;7.69;100.00
19890;BME280;10107;51.198;6.824;2023-02-13T00:58:13;-21521.69;;;7.68;100.00
19890;BME280;10107;51.198;6.824;2023-02-13T01:02:16;-21521.69;;;7.68;100.00
19890;BME280;10107;51.198;6.824;2023-02-13T01:06:18;-21521.81;;;7.69;100.00
19890;BME280;10107;51.198;6.824;2023-02-13T01:10:19;-21521.03;;;7.66;100.00
19890;BME280;10107;51.198;6.824;2023-02-13T01:14:24;-21520.34;;;7.63;100.00
19890;BME280;10107;51.198;6.824;2023-02-13T01:18:27;-21519.69;;;7.61;100.00
19890;BME280;10107;51.198;6.824;2023-02-13T01:22:29;-21519.81;;;7.61;100.00
19890;BME280;10107;51.198;6.824;2023-02-13T01:26:30;-21519.16;;;7.59;100.00
19890;BME280;10107;51.198;6.824;2023-02-13T01:30:32;-21518.91;;;7.58;100.00
19890;BME280;10107;51.198;6.824;2023-02-13T01:34:35;-21518.63;;;7.57;100.00
19890;BME280;10107;51.198;6.824;2023-02-13T01:38:38;-21518.38;;;7.56;100.00
19890;BME280;10107;51.198;6.824;2023-02-13T01:42:39;-21517.28;;;7.51;100.00
19890;BME280;10107;51.198;6.824;2023-02-13T01:46:42;-21517.03;;;7.50;100.00
19890;BME280;10107;51.198;6.824;2023-02-13T01:50:50;-21516.50;;;7.48;100.00
19890;BME280;10107;51.198;6.824;2023-02-13T01:54:54;-21516.09;;;7.47;100.00
19890;BME280;10107;51.198;6.824;2023-02-13T01:59:01;-21516.22;;;7.47;100.00
19890;BME280;10107;51.198;6.824;2023-02-13T02:03:07;-21515.97;;;7.46;100.00
19890;BME280;10107;51.198;6.824;2023-02-13T02:07:14;-21515.69;;;7.45;100.00
19890;BME280;10107;51.198;6.824;2023-02-13T02:11:26;-21515.84;;;7.46;100.00
19890;BME280;10107;51.198;6.824;2023-02-13T02:15:31;-21515.44;;;7.44;100.00
19890;BME280;10107;51.198;6.824;2023-02-13T02:19:37;-21514.63;;;7.41;100.00
19890;BME280;10107;51.198;6.824;2023-02-13T02:23:59;-21514.50;;;7.41;100.00
19890;BME280;10107;51.198;6.824;2023-02-13T02:32:52;-21513.56;;;7.37;100.00
19890;BME280;10107;51.198;6.824;2023-02-13T02:37:22;-21513.03;;;7.35;100.00
19890;BME280;10107;51.198;6.824;2023-02-13T02:41:45;-21512.09;;;7.31;100.00
19890;BME280;10107;51.198;6.824;2023-02-13T02:46:03;-21512.09;;;7.31;100.00
19890;BME280;10107;51.198;6.824;2023-02-13T02:50:15;-21512.25;;;7.32;100.00
19890;BME280;10107;51.198;6.824;2023-02-13T02:54:25;-21511.72;;;7.30;100.00
19890;BME280;10107;51.198;6.824;2023-02-13T02:58:53;-21511.31;;;7.28;100.00
19890;BME280;10107;51.198;6.824;2023-02-13T03:03:17;-21510.63;;;7.26;100.00
19890;BME280;10107;51.198;6.824;2023-02-13T03:07:38;-21510.50;;;7.25;100.00
19890;BME280;10107;51.198;6.824;2023-02-13T03:11:41;-21510.78;;;7.26;100.00
19890;BME280;10107;51.198;6.824;2023-02-13T03:16:03;-21509.97;;;7.23;100.00
19890;BME280;10107;51.198;6.824;2023-02-13T03:20:31;-21509.97;;;7.23;100.00
19890;BME280;10107;51.198;6.824;2023-02-13T03:25:02;-21509.44;;;7.21;100.00
19890;BME280;10107;51.198;6.824;2023-02-13T03:29:13;-21509.44;;;7.21;100.00
19890;BME280;10107;51.198;6.824;2023-02-13T03:33:47;-21509.97;;;7.23;100.00
19890;BME280;10107;51.198;6.824;2023-02-13T03:37:52;-21509.72;;;7.22;100.00
19890;BME280;10107;51.198;6.824;2023-02-13T03:41:57;-21509.97;;;7.23;100.00
19890;BME280;10107;51.198;6.824;2023-02-13T03:46:02;-21509.44;;;7.21;100.00
19890;BME280;10107;51.198;6.824;2023-02-13T03:50:06;-21509.72;;;7.22;100.00
19890;BME280;10107;51.198;6.824;2023-02-13T03:54:15;-21509.97;;;7.23;100.00
19890;BME280;10107;51.198;6.824;2023-02-13T03:58:22;-21508.91;;;7.19;100.00
19890;BME280;10107;51.198;6.824;2023-02-13T04:02:49;-21508.25;;;7.17;100.00
19890;BME280;10107;51.198;6.824;2023-02-13T04:06:55;-21507.72;;;7.14;100.00
19890;BME280;10107;51.198;6.824;2023-02-13T04:11:03;-21507.56;;;7.14;100.00
19890;BME280;10107;51.198;6.824;2023-02-13T04:15:14;-21507.44;;;7.13;100.00
19890;BME280;10107;51.198;6.824;2023-02-13T04:19:18;-21506.91;;;7.11;100.00
19890;BME280;10107;51.198;6.824;2023-02-13T04:23:21;-21506.66;;;7.10;100.00
19890;BME280;10107;51.198;6.824;2023-02-13T04:27:24;-21506.25;;;7.09;100.00
19890;BME280;10107;51.198;6.824;2023-02-13T04:31:30;-21506.13;;;7.08;100.00
19890;BME280;10107;51.198;6.824;2023-02-13T04:35:31;-21505.97;;;7.08;100.00
19890;BME280;10107;51.198;6.824;2023-02-13T04:39:33;-21505.31;;;7.05;100.00
19890;BME280;10107;51.198;6.824;2023-02-13T04:43:35;-21505.03;;;7.04;100.00
19890;BME280;10107;51.198;6.824;2023-02-13T04:47:39;-21504.66;;;7.03;100.00
19890;BME280;10107;51.198;6.824;2023-02-13T04:51:40;-21503.72;;;6.99;100.00
19890;BME280;10107;51.198;6.824;2023-02-13T04:55:42;-21502.53;;;6.94;100.00
19890;BME280;10107;51.198;6.824;2023-02-13T04:59:45;-21501.31;;;6.90;100.00
19890;BME280;10107;51.198;6.824;2023-02-13T05:03:48;-21499.59;;;6.83;100.00
19890;BME280;10107;51.198;6.824;2023-02-13T05:07:51;-21498.78;;;6.80;100.00
19890;BME280;10107;51.198;6.824;2023-02-13T05:11:53;-21497.59;;;6.76;100.00
19890;BME280;10107;51.198;6.824;2023-02-13T05:15:55;-21496.13;;;6.70;100.00
19890;BME280;10107;51.198;6.824;2023-02-13T05:19:58;-21494.53;;;6.64;100.00
19890;BME280;10107;51.198;6.824;2023-02-13T05:24:00;-21493.19;;;6.59;100.00
19890;BME280;10107;51.198;6.824;2023-02-13T05:28:02;-21493.19;;;6.59;100.00
19890;BME280;10107;51.198;6.824;2023-02-13T05:32:04;-21492.13;;;6.54;100.00
19890;BME280;10107;51.198;6.824;2023-02-13T05:36:07;-21489.84;;;6.46;100.00
19890;BME280;10107;51.198;6.824;2023-02-13T05:40:10;-21488.53;;;6.41;100.00
19890;BME280;10107;51.198;6.824;2023-02-13T05:44:14;-21486.94;;;6.34;100.00
19890;BME280;10107;51.198;6.824;2023-02-13T05:48:16;-21484.66;;;6.26;100.00
19890;BME280;10107;51.198;6.824;2023-02-13T05:52:19;-21483.47;;;6.21;100.00
19890;BME280;10107;51.198;6.824;2023-02-13T05:56:20;-21482.41;;;6.17;100.00
19890;BME280;10107;51.198;6.824;2023-02-13T06:00:23;-21482.41;;;6.17;100.00
19890;BME280;10107;51.198;6.824;2023-02-13T06:04:25;-21482.00;;;6.15;100.00
19890;BME280;10107;51.198;6.824;2023-02-13T06:08:28;-21481.06;;;6.12;100.00
19890;BME280;10107;51.198;6.824;2023-02-13T06:12:30;-21479.84;;;6.07;100.00
19890;BME280;10107;51.198;6.824;2023-02-13T06:16:32;-21479.84;;;6.07;100.00
19890;BME280;10107;51.198;6.824;2023-02-13T06:20:34;-21479.06;;;6.04;100.00
19890;BME280;10107;51.198;6.824;2023-02-13T06:24:37;-21478.25;;;6.01;100.00
19890;BME280;10107;51.198;6.824;2023-02-13T06:28:39;-21478.25;;;6.01;100.00
19890;BME280;10107;51.198;6.824;2023-02-13T06:32:40;-21476.25;;;5.93;100.00
19890;BME280;10107;51.198;6.824;2023-02-13T06:36:42;-21474.66;;;5.87;100.00
19890;BME280;10107;51.198;6.824;2023-02-13T06:40:45;-21474.25;;;5.86;100.00
19890;BME280;10107;51.198;6.824;2023-02-13T06:44:47;-21472.38;;;5.79;100.00
19890;BME280;10107;51.198;6.824;2023-02-13T06:48:48;-21470.38;;;5.71;100.00
19890;BME280;10107;51.198;6.824;2023-02-13T06:52:51;-21469.31;;;5.67;100.00
19890;BME280;10107;51.198;6.824;2023-02-13T06:56:54;-21468.91;;;5.65;100.00
19890;BME280;10107;51.198;6.824;2023-02-13T07:00:55;-21469.19;;;5.66;100.00
19890;BME280;10107;51.198;6.824;2023-02-13T07:04:57;-21470.25;;;5.70;100.00
19890;BME280;10107;51.198;6.824;2023-02-13T07:09:00;-21470.66;;;5.72;100.00
19890;BME280;10107;51.198;6.824;2023-02-13T07:13:03;-21471.72;;;5.76;100.00
19890;BME280;10107;51.198;6.824;2023-02-13T07:17:04;-21472.25;;;5.78;100.00
19890;BME280;10107;51.198;6.824;2023-02-13T07:21:06;-21473.31;;;5.82;100.00
19890;BME280;10107;51.198;6.824;2023-02-13T07:25:08;-21474.78;;;5.88;100.00
19890;BME280;10107;51.198;6.824;2023-02-13T07:29:11;-21476.66;;;5.95;100.00
19890;BME280;10107;51.198;6.824;2023-02-13T07:33:13;-21478.38;;;6.02;100.00
19890;BME280;10107;51.198;6.824;2023-02-13T07:37:14;-21480.13;;;6.08;100.00
19890;BME280;10107;51.198;6.824;2023-02-13T07:41:16;-21482.00;;;6.15;100.00
19890;BME280;10107;51.198;6.824;2023-02-13T07:45:19;-21484.00;;;6.23;100.00
19890;BME280;10107;51.198;6.824;2023-02-13T07:49:20;-21486.41;;;6.32;100.00
19890;BME280;10107;51.198;6.824;2023-02-13T07:53:22;-21488.78;;;6.42;100.00
19890;BME280;10107;51.198;6.824;2023-02-13T07:57:24;-21491.84;;;6.53;100.00
19890;BME280;10107;51.198;6.824;2023-02-13T08:01:27;-21495.59;;;6.68;100.00
19890;BME280;10107;51.198;6.824;2023-02-13T08:05:30;-21518.50;;;7.56;100.00
19890;BME280;10107;51.198;6.824;2023-02-13T08:09:32;-21698.50;;;14.54;77.44
19890;BME280;10107;51.198;6.824;2023-02-13T08:13:51;-21835.03;;;19.88;54.31
19890;BME280;10107;51.198;6.824;2023-02-13T08:17:55;-21909.56;;;22.82;40.43
19890;BME280;10107;51.198;6.824;2023-02-13T08:21:56;-21955.41;;;24.64;36.28
19890;BME280;10107;51.198;6.824;2023-02-13T08:25:59;-21980.59;;;25.64;31.92
19890;BME280;10107;51.198;6.824;2023-02-13T08:30:02;-21987.53;;;25.92;30.58
19890;BME280;10107;51.198;6.824;2023-02-13T08:34:05;-22008.41;;;26.75;29.74
19890;BME280;10107;51.198;6.824;2023-02-13T08:38:08;-22061.09;;;28.85;27.32
19890;BME280;10107;51.198;6.824;2023-02-13T08:42:10;-22059.81;;;28.80;26.04
19890;BME280;10107;51.198;6.824;2023-02-13T08:46:12;-22053.78;;;28.56;25.86
19890;BME280;10107;51.198;6.824;2023-02-13T08:50:15;-22052.63;;;28.51;25.74
19890;BME280;10107;51.198;6.824;2023-02-13T08:54:17;-22068.91;;;29.16;25.59
19890;BME280;10107;51.198;6.824;2023-02-13T08:58:19;-22053.53;;;28.55;25.25
19890;BME280;10107;51.198;6.824;2023-02-13T09:02:20;-22024.50;;;27.39;26.47
19890;BME280;10107;51.198;6.824;2023-02-13T09:06:23;-22020.50;;;27.23;26.83
19890;BME280;10107;51.198;6.824;2023-02-13T09:10:25;-21991.94;;;26.09;28.24
19890;BME280;10107;51.198;6.824;2023-02-13T09:14:27;-21901.00;;;22.48;33.62
19890;BME280;10107;51.198;6.824;2023-02-13T09:18:28;-21831.25;;;19.73;38.15
19890;BME280;10107;51.198;6.824;2023-02-13T09:22:31;-21796.13;;;18.35;42.57
19890;BME280;10107;51.198;6.824;2023-02-13T09:26:33;-21773.09;;;17.45;45.24
19890;BME280;10107;51.198;6.824;2023-02-13T09:30:35;-21773.34;;;17.46;45.92
19890;BME280;10107;51.198;6.824;2023-02-13T09:34:36;-21775.19;;;17.53;45.71
19890;BME280;10107;51.198;6.824;2023-02-13T09:38:40;-21778.44;;;17.66;46.06
19890;BME280;10107;51.198;6.824;2023-02-13T09:42:44;-21800.69;;;18.53;44.21
19890;BME280;10107;51.198;6.824;2023-02-13T09:46:46;-21796.63;;;18.37;42.99
19890;BME280;10107;51.198;6.824;2023-02-13T09:50:48;-21776.50;;;17.58;44.67
19890;BME280;10107;51.198;6.824;2023-02-13T09:54:51;-21779.75;;;17.71;44.81
19890;BME280;10107;51.198;6.824;2023-02-13T09:58:56;-21788.66;;;18.06;44.61
19890;BME280;10107;51.198;6.824;2023-02-13T10:03:18;-21790.88;;;18.15;44.33
19890;BME280;10107;51.198;6.824;2023-02-13T10:07:26;-21789.72;;;18.10;43.30
19890;BME280;10107;51.198;6.824;2023-02-13T10:12:00;-21794.53;;;18.29;43.25
19890;BME280;10107;51.198;6.824;2023-02-13T10:16:08;-21806.56;;;18.76;42.31
19890;BME280;10107;51.198;6.824;2023-02-13T10:20:24;-21820.03;;;19.29;41.50
19890;BME280;10107;51.198;6.824;2023-02-13T10:24:30;-21825.91;;;19.52;40.64
19890;BME280;10107;51.198;6.824;2023-02-13T10:28:37;-21833.88;;;19.84;40.08
19890;BME280;10107;51.198;6.824;2023-02-13T10:32:45;-21839.72;;;20.07;39.90
19890;BME280;10107;51.198;6.824;2023-02-13T10:36:48;-21840.63;;;20.10;39.57
19890;BME280;10107;51.198;6.824;2023-02-13T10:41:03;-21855.63;;;20.69;38.20
19890;BME280;10107;51.198;6.824;2023-02-13T10:45:20;-21868.78;;;21.21;36.87
19890;BME280;10107;51.198;6.824;2023-02-13T10:49:50;-21857.84;;;20.78;37.07
19890;BME280;10107;51.198;6.824;2023-02-13T10:54:09;-21866.16;;;21.11;36.93
19890;BME280;10107;51.198;6.824;2023-02-13T10:58:18;-21871.09;;;21.30;37.18
19890;BME280;10107;51.198;6.824;2023-02-13T11:02:24;-21895.81;;;22.28;35.86
19890;BME280;10107;51.198;6.824;2023-02-13T11:06:27;-21897.50;;;22.34;34.53
19890;BME280;10107;51.198;6.824;2023-02-13T11:10:29;-21899.56;;;22.43;34.17
19890;BME280;10107;51.198;6.824;2023-02-13T11:14:31;-21901.66;;;22.51;34.44
19890;BME280;10107;51.198;6.824;2023-02-13T11:18:36;-21891.66;;;22.11;34.08
19890;BME280;10107;51.198;6.824;2023-02-13T11:22:39;-21897.63;;;22.35;35.10
19890;BME280;10107;51.198;6.824;2023-02-13T11:26:42;-21889.69;;;22.04;34.45
19890;BME280;10107;51.198;6.824;2023-02-13T11:30:44;-21895.28;;;22.26;34.45
19890;BME280;10107;51.198;6.824;2023-02-13T11:34:49;-21897.09;;;22.33;34.29
19890;BME280;10107;51.198;6.824;2023-02-13T11:38:57;-21892.03;;;22.13;33.93
19890;BME280;10107;51.198;6.824;2023-02-13T11:42:59;-21894.38;;;22.22;34.36
19890;BME280;10107;51.198;6.824;2023-02-13T11:47:00;-21907.22;;;22.73;33.90
19890;BME280;10107;51.198;6.824;2023-02-13T11:51:04;-21909.94;;;22.84;33.33
19890;BME280;10107;51.198;6.824;2023-02-13T11:55:25;-21899.31;;;22.42;33.52
19890;BME280;10107;51.198;6.824;2023-02-13T11:59:31;-21882.03;;;21.73;34.50
19890;BME280;10107;51.198;6.824;2023-02-13T12:03:34;-21885.03;;;21.85;35.18
19890;BME280;10107;51.198;6.824;2023-02-13T12:08:10;-21882.03;;;21.73;34.20
19890;BME280;10107;51.198;6.824;2023-02-13T12:12:17;-21878.25;;;21.59;34.82
19890;BME280;10107;51.198;6.824;2023-02-13T12:16:29;-21867.34;;;21.15;35.57
19890;BME280;10107;51.198;6.824;2023-02-13T12:20:39;-21837.91;;;20.00;37.94
19890;BME280;10107;51.198;6.824;2023-02-13T12:24:57;-21796.25;;;18.36;41.08
19890;BME280;10107;51.198;6.824;2023-02-13T12:29:22;-21758.81;;;16.89;43.93
19890;BME280;10107;51.198;6.824;2023-02-13T12:33:47;-21732.28;;;15.86;47.12
19890;BME280;10107;51.198;6.824;2023-02-13T12:37:59;-21717.84;;;15.29;49.07
19890;BME280;10107;51.198;6.824;2023-02-13T12:42:20;-21713.38;;;15.12;52.19
19890;BME280;10107;51.198;6.824;2023-02-13T12:46:28;-21704.81;;;14.78;50.32
19890;BME280;10107;51.198;6.824;2023-02-13T12:50:51;-21696.41;;;14.45;52.64
19890;BME280;10107;51.198;6.824;2023-02-13T12:55:03;-21692.59;;;14.31;53.60
19890;BME280;10107;51.198;6.824;2023-02-13T12:59:18;-21687.44;;;14.11;54.44
19890;BME280;10107;51.198;6.824;2023-02-13T13:03:30;-21685.47;;;14.03;54.45
19890;BME280;10107;51.198;6.824;2023-02-13T13:07:48;-21682.84;;;13.93;54.42
19890;BME280;10107;51.198;6.824;2023-02-13T13:12:12;-21679.28;;;13.79;55.24
19890;BME280;10107;51.198;6.824;2023-02-13T13:16:22;-21680.47;;;13.83;56.98
19890;BME280;10107;51.198;6.824;2023-02-13T13:20:50;-21681.66;;;13.88;56.92
19890;BME280;10107;51.198;6.824;2023-02-13T13:25:01;-21680.06;;;13.82;56.63
19890;BME280;10107;51.198;6.824;2023-02-13T13:29:09;-21677.84;;;13.73;58.05
19890;BME280;10107;51.198;6.824;2023-02-13T13:33:15;-21678.38;;;13.75;58.48
19890;BME280;10107;51.198;6.824;2023-02-13T13:37:24;-21677.97;;;13.74;57.84
19890;BME280;10107;51.198;6.824;2023-02-13T13:41:36;-21677.97;;;13.74;57.28
19890;BME280;10107;51.198;6.824;2023-02-13T13:45:45;-21676.00;;;13.66;57.68
19890;BME280;10107;51.198;6.824;2023-02-13T13:49:52;-21674.94;;;13.62;58.45
19890;BME280;10107;51.198;6.824;2023-02-13T13:54:32;-21672.28;;;13.52;56.72
19890;BME280;10107;51.198;6.824;2023-02-13T13:58:38;-21670.31;;;13.44;58.14
19890;BME280;10107;51.198;6.824;2023-02-13T14:02:45;-21669.78;;;13.42;58.38
19890;BME280;10107;51.198;6.824;2023-02-13T14:07:19;-21669.94;;;13.42;58.67
19890;BME280;10107;51.198;6.824;2023-02-13T14:11:28;-21670.59;;;13.45;58.81
19890;BME280;10107;51.198;6.824;2023-02-13T14:15:51;-21668.47;;;13.37;58.43
19890;BME280;10107;51.198;6.824;2023-02-13T14:19:55;-21668.22;;;13.36;58.65
19890;BME280;10107;51.198;6.824;2023-02-13T14:23:58;-21666.50;;;13.29;58.33
19890;BME280;10107;51.198;6.824;2023-02-13T14:28:04;-21666.63;;;13.30;58.27
19890;BME280;10107;51.198;6.824;2023-02-13T14:32:18;-21668.06;;;13.35;58.06
19890;BME280;10107;51.198;6.824;2023-02-13T14:36:27;-21667.28;;;13.32;57.79
19890;BME280;10107;51.198;6.824;2023-02-13T14:40:54;-21667.81;;;13.34;57.45
19890;BME280;10107;51.198;6.824;2023-02-13T14:44:57;-21668.34;;;13.36;57.94
19890;BME280;10107;51.198;6.824;2023-02-13T14:49:02;-21666.09;;;13.27;58.34
19890;BME280;10107;51.198;6.824;2023-02-13T14:53:15;-21665.69;;;13.26;59.09
19890;BME280;10107;51.198;6.824;2023-02-13T14:57:23;-21664.63;;;13.22;59.34
19890;BME280;10107;51.198;6.824;2023-02-13T15:01:31;-21663.59;;;13.18;59.72
19890;BME280;10107;51.198;6.824;2023-02-13T15:05:34;-21661.47;;;13.10;58.95
19890;BME280;10107;51.198;6.824;2023-02-13T15:09:38;-21659.75;;;13.03;59.22
19890;BME280;10107;51.198;6.824;2023-02-13T15:13:42;-21660.41;;;13.05;59.11
19890;BME280;10107;51.198;6.824;2023-02-13T15:17:43;-21660.16;;;13.04;58.56
19890;BME280;10107;51.198;6.824;2023-02-13T15:21:49;-21657.91;;;12.96;58.34
19890;BME280;10107;51.198;6.824;2023-02-13T15:25:56;-21655.94;;;12.88;58.95
19890;BME280;10107;51.198;6.824;2023-02-13T15:30:02;-21655.41;;;12.86;59.26
19890;BME280;10107;51.198;6.824;2023-02-13T15:34:19;-21653.97;;;12.80;58.73
19890;BME280;10107;51.198;6.824;2023-02-13T15:38:24;-21654.09;;;12.81;58.93
19890;BME280;10107;51.198;6.824;2023-02-13T15:42:26;-21653.03;;;12.77;59.16
19890;BME280;10107;51.198;6.824;2023-02-13T15:46:31;-21650.78;;;12.68;59.37
19890;BME280;10107;51.198;6.824;2023-02-13T15:50:36;-21649.22;;;12.62;59.30
19890;BME280;10107;51.198;6.824;2023-02-13T15:54:47;-21649.22;;;12.62;58.67
19890;BME280;10107;51.198;6.824;2023-02-13T15:58:49;-21647.09;;;12.54;59.14
19890;BME280;10107;51.198;6.824;2023-02-13T16:02:54;-21644.72;;;12.44;59.36
19890;BME280;10107;51.198;6.824;2023-02-13T16:06:57;-21640.09;;;12.26;59.65
19890;BME280;10107;51.198;6.824;2023-02-13T16:11:18;-21634.16;;;12.03;60.81
19890;BME280;10107;51.198;6.824;2023-02-13T16:15:20;-21628.72;;;11.82;61.74
19890;BME280;10107;51.198;6.824;2023-02-13T16:19:36;-21623.44;;;11.62;62.33
19890;BME280;10107;51.198;6.824;2023-02-13T16:23:42;-21617.75;;;11.40;62.97
19890;BME280;10107;51.198;6.824;2023-02-13T16:27:46;-21613.25;;;11.22;64.44
19890;BME280;10107;51.198;6.824;2023-02-13T16:31:49;-21607.44;;;11.00;65.18
19890;BME280;10107;51.198;6.824;2023-02-13T16:35:54;-21599.09;;;10.67;66.53
19890;BME280;10107;51.198;6.824;2023-02-13T16:40:20;-21592.59;;;10.42;68.76
19890;BME280;10107;51.198;6.824;2023-02-13T16:44:23;-21584.78;;;10.12;71.38
19890;BME280;10107;51.198;6.824;2023-02-13T16:48:24;-21576.41;;;9.80;74.10
19890;BME280;10107;51.198;6.824;2023-02-13T16:52:28;-21569.53;;;9.53;77.16
19890;BME280;10107;51.198;6.824;2023-02-13T16:56:36;-21563.41;;;9.29;78.52
19890;BME280;10107;51.198;6.824;2023-02-13T17:00:38;-21558.38;;;9.10;80.53
19890;BME280;10107;51.198;6.824;2023-02-13T17:04:41;-21553.47;;;8.91;82.11
19890;BME280;10107;51.198;6.824;2023-02-13T17:08:45;-21547.50;;;8.68;84.15
19890;BME280;10107;51.198;6.824;2023-02-13T17:12:47;-21542.16;;;8.47;86.41
19890;BME280;10107;51.198;6.824;2023-02-13T17:16:50;-21537.50;;;8.29;87.67
19890;BME280;10107;51.198;6.824;2023-02-13T17:20:52;-21532.84;;;8.11;90.42
19890;BME280;10107;51.198;6.824;2023-02-13T17:24:55;-21529.41;;;7.98;92.14
19890;BME280;10107;51.198;6.824;2023-02-13T17:28:57;-21525.94;;;7.85;93.50
19890;BME280;10107;51.198;6.824;2023-02-13T17:33:01;-21521.81;;;7.69;94.57
19890;BME280;10107;51.198;6.824;2023-02-13T17:37:04;-21518.91;;;7.58;95.31
19890;BME280;10107;51.198;6.824;2023-02-13T17:41:13;-21516.63;;;7.49;96.40
19890;BME280;10107;51.198;6.824;2023-02-13T17:45:17;-21515.97;;;7.46;96.35
19890;BME280;10107;51.198;6.824;2023-02-13T17:49:19;-21522.22;;;7.70;94.21
19890;BME280;10107;51.198;6.824;2023-02-13T17:53:23;-21527.94;;;7.92;92.25
19890;BME280;10107;51.198;6.824;2023-02-13T17:57:26;-21532.19;;;8.09;89.83
19890;BME280;10107;51.198;6.824;2023-02-13T18:01:28;-21533.13;;;8.12;88.26
19890;BME280;10107;51.198;6.824;2023-02-13T18:05:32;-21532.84;;;8.11;87.81
19890;BME280;10107;51.198;6.824;2023-02-13T18:09:34;-21530.59;;;8.03;88.01
19890;BME280;10107;51.198;6.824;2023-02-13T18:13:37;-21527.28;;;7.90;89.08
19890;BME280;10107;51.198;6.824;2023-02-13T18:17:43;-21526.59;;;7.87;89.52
19890;BME280;10107;51.198;6.824;2023-02-13T18:21:45;-21525.69;;;7.84;89.38
19890;BME280;10107;51.198;6.824;2023-02-13T18:25:47;-21523.81;;;7.77;90.00
19890;BME280;10107;51.198;6.824;2023-02-13T18:29:50;-21524.63;;;7.80;90.04
19890;BME280;10107;51.198;6.824;2023-02-13T18:33:51;-21526.34;;;7.86;89.40
19890;BME280;10107;51.198;6.824;2023-02-13T18:37:53;-21527.28;;;7.90;88.43
19890;BME280;10107;51.198;6.824;2023-02-13T18:41:55;-21528.34;;;7.94;88.87
19890;BME280;10107;51.198;6.824;2023-02-13T18:45:58;-21527.41;;;7.90;89.01
19890;BME280;10107;51.198;6.824;2023-02-13T18:50:00;-21525.53;;;7.83;89.57
19890;BME280;10107;51.198;6.824;2023-02-13T18:54:02;-21522.50;;;7.71;89.95
19890;BME280;10107;51.198;6.824;2023-02-13T18:58:05;-21517.97;;;7.54;91.47
19890;BME280;10107;51.198;6.824;2023-02-13T19:02:09;-21514.63;;;7.41;92.85
19890;BME280;10107;51.198;6.824;2023-02-13T19:06:12;-21511.84;;;7.30;93.85
19890;BME280;10107;51.198;6.824;2023-02-13T19:10:14;-21511.44;;;7.29;95.85
19890;BME280;10107;51.198;6.824;2023-02-13T19:14:16;-21511.84;;;7.30;95.26
19890;BME280;10107;51.198;6.824;2023-02-13T19:18:19;-21508.09;;;7.16;95.76
19890;BME280;10107;51.198;6.824;2023-02-13T19:22:21;-21503.84;;;7.00;97.83
19890;BME280;10107;51.198;6.824;2023-02-13T19:26:24;-21499.84;;;6.84;98.63
19890;BME280;10107;51.198;6.824;2023-02-13T19:30:26;-21495.47;;;6.67;99.72
19890;BME280;10107;51.198;6.824;2023-02-13T19:34:29;-21490.53;;;6.48;100.00
19890;BME280;10107;51.198;6.824;2023-02-13T19:38:31;-21489.47;;;6.44;100.00
19890;BME280;10107;51.198;6.824;2023-02-13T19:42:33;-21493.06;;;6.58;100.00
19890;BME280;10107;51.198;6.824;2023-02-13T19:46:36;-21496.78;;;6.72;100.00
19890;BME280;10107;51.198;6.824;2023-02-13T19:50:40;-21498.13;;;6.78;100.00
19890;BME280;10107;51.198;6.824;2023-02-13T19:54:41;-21503.31;;;6.98;100.00
19890;BME280;10107;51.198;6.824;2023-02-13T19:58:44;-21504.13;;;7.01;100.00
19890;BME280;10107;51.198;6.824;2023-02-13T20:02:45;-21504.13;;;7.01;100.00
19890;BME280;10107;51.198;6.824;2023-02-13T20:06:48;-21504.50;;;7.02;100.00
19890;BME280;10107;51.198;6.824;2023-02-13T20:10:56;-21505.44;;;7.06;100.00
19890;BME280;10107;51.198;6.824;2023-02-13T20:14:58;-21508.50;;;7.18;100.00
19890;BME280;10107;51.198;6.824;2023-02-13T20:19:00;-21511.56;;;7.29;100.00
19890;BME280;10107;51.198;6.824;2023-02-13T20:23:07;-21512.50;;;7.33;99.56
19890;BME280;10107;51.198;6.824;2023-02-13T20:27:10;-21513.16;;;7.36;99.41
19890;BME280;10107;51.198;6.824;2023-02-13T20:31:14;-21513.03;;;7.35;98.92
19890;BME280;10107;51.198;6.824;2023-02-13T20:35:16;-21514.38;;;7.40;98.43
19890;BME280;10107;51.198;6.824;2023-02-13T20:39:21;-21515.16;;;7.43;98.15
19890;BME280;10107;51.198;6.824;2023-02-13T20:43:23;-21514.63;;;7.41;97.61
19890;BME280;10107;51.198;6.824;2023-02-13T20:47:25;-21517.03;;;7.50;96.53
19890;BME280;10107;51.198;6.824;2023-02-13T20:51:27;-21517.44;;;7.52;96.10
19890;BME280;10107;51.198;6.824;2023-02-13T20:55:31;-21515.69;;;7.45;95.58
19890;BME280;10107;51.198;6.824;2023-02-13T20:59:32;-21513.16;;;7.36;96.74
19890;BME280;10107;51.198;6.824;2023-02-13T21:03:35;-21512.78;;;7.34;96.70
19890;BME280;10107;51.198;6.824;2023-02-13T21:07:37;-21513.03;;;7.35;96.28
19890;BME280;10107;51.198;6.824;2023-02-13T21:11:41;-21512.25;;;7.32;96.72
19890;BME280;10107;51.198;6.824;2023-02-13T21:15:44;-21509.44;;;7.21;97.34
19890;BME280;10107;51.198;6.824;2023-02-13T21:19:48;-21508.09;;;7.16;97.45
19890;BME280;10107;51.198;6.824;2023-02-13T21:23:51;-21507.56;;;7.14;97.42
19890;BME280;10107;51.198;6.824;2023-02-13T21:27:54;-21505.19;;;7.05;97.75
19890;BME280;10107;51.198;6.824;2023-02-13T21:31:56;-21502.13;;;6.93;98.62
19890;BME280;10107;51.198;6.824;2023-02-13T21:36:03;-21501.72;;;6.91;98.88